Time;durP1;ratioP1;P1;durP2;ratioP2;P2;SDS_P1;SDS_P2;PMS_P1;PMS_P2;Temp;Humidity;BMP_temperature;BMP_pressure;BME280_temperature;BME280_humidity;BME280_pressure;Samples;Min_cycle;Max_cycle;Signal;HPM_P1;HPM_P2
2022/06/05 00:01:48;;;;;;;;;15.75;13.00;;;;;;;;5037337;28;45509;-69
2022/06/05 00:04:24;;;;;;;;;14.00;11.25;;;;;;;;5045733;28;47957;-68
2022/06/05 00:06:50;;;;;;;;;15.75;15.50;;;;;;;;5045218;28;45582;-69
2022/06/05 00:09:29;;;;;;;;;17.25;16.75;;;;;;;;5050338;28;45437;-68
2022/06/05 00:11:54;;;;;;;;;15.25;12.75;;;;;;;;5052338;28;45497;-68
2022/06/05 00:14:20;;;;;;;;;18.75;17.75;;;;;;;;5048349;28;45761;-68
2022/06/05 00:16:45;;;;;;;;;15.75;15.75;;;;;;;;5049758;28;45388;-68
2022/06/05 00:19:10;;;;;;;;;22.00;18.00;;;;;;;;5035285;28;45596;-68
2022/06/05 00:21:36;;;;;;;;;18.25;17.25;;;;;;;;5051034;28;45415;-69
2022/06/05 00:24:01;;;;;;;;;21.25;18.75;;;;;;;;5055599;28;46232;-69
2022/06/05 00:26:46;;;;;;;;;17.50;16.25;;;;;;;;5051315;28;45471;-68
2022/06/05 00:29:27;;;;;;;;;18.75;18.50;;;;;;;;5042906;28;45420;-68
2022/06/05 00:32:07;;;;;;;;;17.50;17.50;;;;;;;;5050590;28;45440;-68
2022/06/05 00:34:32;;;;;;;;;16.50;16.50;;;;;;;;5052807;28;45425;-68
2022/06/05 00:36:57;;;;;;;;;13.25;12.00;;;;;;;;5056210;28;45434;-68
2022/06/05 00:39:29;;;;;;;;;20.00;17.75;;;;;;;;5053710;28;45416;-68
2022/06/05 00:41:58;;;;;;;;;16.00;16.00;;;;;;;;5031607;28;45606;-68
2022/06/05 00:44:43;;;;;;;;;12.50;12.50;;;;;;;;5062638;28;46635;-68
2022/06/05 00:47:11;;;;;;;;;15.25;15.25;;;;;;;;5048182;28;45488;-68
2022/06/05 00:49:42;;;;;;;;;20.25;18.75;;;;;;;;5065070;28;45498;-68
2022/06/05 00:52:09;;;;;;;;;13.50;13.50;;;;;;;;5047560;28;45578;-67
2022/06/05 00:54:34;;;;;;;;;13.50;13.50;;;;;;;;5035506;28;48787;-68
2022/06/05 00:57:00;;;;;;;;;16.25;16.25;;;;;;;;5040874;28;45442;-69
2022/06/05 00:59:26;;;;;;;;;13.00;11.00;;;;;;;;5040577;28;45969;-68
2022/06/05 01:01:52;;;;;;;;;12.50;12.25;;;;;;;;5054435;28;45483;-68
2022/06/05 01:04:18;;;;;;;;;10.00;10.00;;;;;;;;5054618;28;47248;-68
2022/06/05 01:06:43;;;;;;;;;9.25;9.25;;;;;;;;5055099;28;45646;-68
2022/06/05 01:09:09;;;;;;;;;12.75;11.75;;;;;;;;5036381;28;45422;-68
2022/06/05 01:11:46;;;;;;;;;16.25;15.50;;;;;;;;5045661;28;45575;-70
2022/06/05 01:14:17;;;;;;;;;15.75;14.75;;;;;;;;5054314;28;45492;-67
2022/06/05 01:16:59;;;;;;;;;9.75;9.75;;;;;;;;5040127;28;45768;-68
2022/06/05 01:19:31;;;;;;;;;10.75;10.75;;;;;;;;5040204;28;45387;-68
2022/06/05 01:22:11;;;;;;;;;12.25;12.25;;;;;;;;5054067;28;45523;-68
2022/06/05 01:24:55;;;;;;;;;15.50;11.50;;;;;;;;5038727;28;46444;-68
2022/06/05 01:27:24;;;;;;;;;13.00;13.00;;;;;;;;5054057;28;45527;-68
2022/06/05 01:29:51;;;;;;;;;13.75;13.75;;;;;;;;5054652;28;45412;-67
2022/06/05 01:32:23;;;;;;;;;11.75;11.75;;;;;;;;5042726;28;45365;-67
2022/06/05 01:34:54;;;;;;;;;12.25;12.25;;;;;;;;5048763;28;47533;-67
2022/06/05 01:37:24;;;;;;;;;13.25;13.00;;;;;;;;5053776;28;45392;-67
2022/06/05 01:39:56;;;;;;;;;15.00;15.00;;;;;;;;5035216;28;45527;-67
2022/06/05 01:42:30;;;;;;;;;15.00;12.25;;;;;;;;5033767;28;45544;-67
2022/06/05 01:44:58;;;;;;;;;15.50;13.50;;;;;;;;5051787;28;45476;-67
2022/06/05 01:47:29;;;;;;;;;13.00;13.00;;;;;;;;5039957;28;45495;-69
2022/06/05 01:49:58;;;;;;;;;15.25;15.25;;;;;;;;5053356;28;45853;-69
2022/06/05 01:52:35;;;;;;;;;12.25;12.25;;;;;;;;5038999;28;45580;-68
2022/06/05 01:55:05;;;;;;;;;13.50;12.00;;;;;;;;5036109;28;48680;-68
2022/06/05 01:57:30;;;;;;;;;16.00;14.75;;;;;;;;5037358;28;45834;-68
2022/06/05 02:00:14;;;;;;;;;16.00;15.00;;;;;;;;5040448;28;45347;-68
2022/06/05 02:02:43;;;;;;;;;12.50;11.25;;;;;;;;5045137;28;45340;-68
2022/06/05 02:05:11;;;;;;;;;10.75;10.75;;;;;;;;5052917;28;45704;-67
2022/06/05 02:07:44;;;;;;;;;10.75;10.75;;;;;;;;5040330;28;46063;-68
2022/06/05 02:10:18;;;;;;;;;14.25;12.50;;;;;;;;5052827;28;45466;-67
2022/06/05 02:12:44;;;;;;;;;11.25;11.00;;;;;;;;5026582;28;45556;-68
2022/06/05 02:15:09;;;;;;;;;10.25;10.25;;;;;;;;5038603;28;47951;-67
2022/06/05 02:17:36;;;;;;;;;13.50;13.50;;;;;;;;5035554;28;45498;-67
2022/06/05 02:20:02;;;;;;;;;13.00;12.00;;;;;;;;5038118;28;45518;-67
2022/06/05 02:22:36;;;;;;;;;14.00;12.25;;;;;;;;5043594;28;45405;-68
2022/06/05 02:25:02;;;;;;;;;10.00;10.00;;;;;;;;5055923;28;46391;-68
2022/06/05 02:27:27;;;;;;;;;12.00;9.75;;;;;;;;5050469;28;45970;-68
2022/06/05 02:29:53;;;;;;;;;12.25;11.75;;;;;;;;5054844;28;45380;-67
2022/06/05 02:32:53;;;;;;;;;13.50;12.75;;;;;;;;5039061;28;45438;-68
2022/06/05 02:35:40;;;;;;;;;11.50;9.75;;;;;;;;4995284;28;46039;-67
2022/06/05 02:38:13;;;;;;;;;12.50;12.50;;;;;;;;4994785;28;45382;-68
2022/06/05 02:40:45;;;;;;;;;13.00;12.00;;;;;;;;4994616;28;45680;-67
2022/06/05 02:43:32;;;;;;;;;16.25;16.25;;;;;;;;4977862;28;45751;-67
2022/06/05 02:46:06;;;;;;;;;11.75;11.75;;;;;;;;4993625;28;46765;-67
2022/06/05 02:48:41;;;;;;;;;14.25;13.50;;;;;;;;4989044;28;46729;-68
2022/06/05 02:51:13;;;;;;;;;13.25;12.00;;;;;;;;5006345;28;45449;-67
2022/06/05 02:53:52;;;;;;;;;12.50;11.25;;;;;;;;5003657;28;45422;-67
2022/06/05 02:56:17;;;;;;;;;12.25;12.25;;;;;;;;4979293;28;47496;-67
2022/06/05 02:58:43;;;;;;;;;12.75;12.50;;;;;;;;5000258;28;45510;-67
2022/06/05 03:03:52;;;;;;;;;12.00;12.00;;;;;;;;4992923;28;45494;-67
2022/06/05 03:06:18;;;;;;;;;10.75;10.75;;;;;;;;4974899;28;47645;-67
2022/06/05 03:08:43;;;;;;;;;11.25;11.25;;;;;;;;4990291;28;45497;-68
2022/06/05 03:11:08;;;;;;;;;12.75;11.25;;;;;;;;5022284;28;45529;-68
2022/06/05 03:13:33;;;;;;;;;9.75;9.75;;;;;;;;5052497;28;45424;-69
2022/06/05 03:15:59;;;;;;;;;13.75;13.75;;;;;;;;5037506;28;47506;-68
2022/06/05 03:18:24;;;;;;;;;11.50;10.25;;;;;;;;5055772;28;45505;-69
2022/06/05 03:20:49;;;;;;;;;11.75;11.25;;;;;;;;5056774;28;45519;-68
2022/06/05 03:23:15;;;;;;;;;8.50;8.50;;;;;;;;5044567;28;45444;-69
2022/06/05 03:25:41;;;;;;;;;9.75;8.75;;;;;;;;5056452;28;45491;-68
2022/06/05 03:28:07;;;;;;;;;10.25;10.25;;;;;;;;5055891;28;45483;-67
2022/06/05 03:30:35;;;;;;;;;12.50;11.25;;;;;;;;5056345;28;45708;-69
2022/06/05 03:33:00;;;;;;;;;14.50;13.25;;;;;;;;5041994;28;45389;-69
2022/06/05 03:35:25;;;;;;;;;11.00;9.50;;;;;;;;5041583;28;48390;-68
2022/06/05 03:37:52;;;;;;;;;10.75;10.75;;;;;;;;5041556;28;46357;-68
2022/06/05 03:40:17;;;;;;;;;11.50;11.50;;;;;;;;5055805;28;45391;-68
2022/06/05 03:42:43;;;;;;;;;12.00;12.00;;;;;;;;5055947;28;45586;-67
2022/06/05 03:45:15;;;;;;;;;14.75;13.75;;;;;;;;5056013;28;45766;-67
2022/06/05 03:47:41;;;;;;;;;13.00;13.00;;;;;;;;5054355;28;45833;-68
2022/06/05 03:50:07;;;;;;;;;13.25;13.25;;;;;;;;5041281;28;45401;-68
2022/06/05 03:52:32;;;;;;;;;11.75;11.25;;;;;;;;5038304;28;45381;-68
2022/06/05 03:54:57;;;;;;;;;14.25;13.25;;;;;;;;5055671;28;45541;-68
2022/06/05 03:57:22;;;;;;;;;16.75;16.75;;;;;;;;5053287;28;45869;-68
2022/06/05 03:59:48;;;;;;;;;12.25;12.25;;;;;;;;5042292;28;45474;-68
2022/06/05 04:02:13;;;;;;;;;14.00;11.75;;;;;;;;5041877;28;45603;-68
2022/06/05 04:04:39;;;;;;;;;9.00;9.00;;;;;;;;5055477;28;46367;-68
2022/06/05 04:07:04;;;;;;;;;12.50;12.50;;;;;;;;5049231;28;45584;-68
2022/06/05 04:09:29;;;;;;;;;11.00;11.00;;;;;;;;5055513;28;45379;-67
2022/06/05 04:11:54;;;;;;;;;10.25;10.25;;;;;;;;5055616;28;45809;-67
2022/06/05 04:14:20;;;;;;;;;11.50;10.50;;;;;;;;5054897;28;45550;-67
2022/06/05 04:16:45;;;;;;;;;14.25;14.00;;;;;;;;5041182;28;45391;-68
2022/06/05 04:19:10;;;;;;;;;10.00;9.75;;;;;;;;5038800;28;46011;-68
2022/06/05 04:21:37;;;;;;;;;11.00;9.75;;;;;;;;5036847;28;45512;-68
2022/06/05 04:24:02;;;;;;;;;11.75;11.75;;;;;;;;5040698;28;48413;-69
2022/06/05 04:26:29;;;;;;;;;10.75;10.75;;;;;;;;5036884;28;46004;-68
2022/06/05 04:28:54;;;;;;;;;14.00;11.75;;;;;;;;5041133;28;45529;-68
2022/06/05 04:31:21;;;;;;;;;11.25;11.25;;;;;;;;5039676;28;45556;-68
2022/06/05 04:33:47;;;;;;;;;11.75;10.75;;;;;;;;5036221;28;49709;-68
2022/06/05 04:36:13;;;;;;;;;10.25;10.25;;;;;;;;5054341;28;45435;-69
2022/06/05 04:38:38;;;;;;;;;13.50;11.75;;;;;;;;5041274;28;45668;-68
2022/06/05 04:41:04;;;;;;;;;11.75;11.75;;;;;;;;5040842;28;45973;-68
2022/06/05 04:43:29;;;;;;;;;11.25;11.25;;;;;;;;5055015;28;46298;-68
2022/06/05 04:45:54;;;;;;;;;14.00;12.25;;;;;;;;5036104;28;45382;-68
2022/06/05 04:48:19;;;;;;;;;17.75;16.25;;;;;;;;5037775;28;45923;-68
2022/06/05 04:50:45;;;;;;;;;17.00;13.25;;;;;;;;5055066;28;47035;-69
2022/06/05 04:53:10;;;;;;;;;15.75;15.75;;;;;;;;5048650;28;47716;-68
2022/06/05 04:55:36;;;;;;;;;16.00;14.50;;;;;;;;5048256;28;45360;-69
2022/06/05 04:58:01;;;;;;;;;14.00;14.00;;;;;;;;5048642;28;45588;-67
2022/06/05 05:00:27;;;;;;;;;12.25;12.25;;;;;;;;5036540;28;45389;-67
2022/06/05 05:02:52;;;;;;;;;13.25;12.25;;;;;;;;5054882;28;45358;-66
2022/06/05 05:05:17;;;;;;;;;11.50;10.50;;;;;;;;5040657;28;46403;-67
2022/06/05 05:07:42;;;;;;;;;13.25;11.75;;;;;;;;5054154;28;45363;-67
2022/06/05 05:10:08;;;;;;;;;11.75;11.75;;;;;;;;5037453;28;45469;-67
2022/06/05 05:12:33;;;;;;;;;14.50;13.25;;;;;;;;5054469;28;47505;-67
2022/06/05 05:14:59;;;;;;;;;12.75;11.50;;;;;;;;5050964;28;45363;-68
2022/06/05 05:17:24;;;;;;;;;11.50;11.50;;;;;;;;5032830;28;45776;-69
2022/06/05 05:19:49;;;;;;;;;13.75;11.00;;;;;;;;5039123;28;45806;-69
2022/06/05 05:22:14;;;;;;;;;9.75;9.75;;;;;;;;5025023;28;48410;-69
2022/06/05 05:24:40;;;;;;;;;11.25;11.25;;;;;;;;5050542;28;45507;-67
2022/06/05 05:27:05;;;;;;;;;11.00;11.00;;;;;;;;5025347;28;45513;-68
2022/06/05 05:29:30;;;;;;;;;16.00;14.25;;;;;;;;5043022;28;45481;-70
2022/06/05 05:31:56;;;;;;;;;13.75;13.50;;;;;;;;5037885;28;48494;-70
2022/06/05 05:34:21;;;;;;;;;12.25;11.75;;;;;;;;4995469;28;45526;-69
2022/06/05 05:36:46;;;;;;;;;18.75;18.50;;;;;;;;5015872;28;45469;-68
2022/06/05 05:42:05;;;;;;;;;13.50;13.50;;;;;;;;5008304;28;45332;-69
2022/06/05 05:44:35;;;;;;;;;16.50;13.25;;;;;;;;5005900;28;45779;-68
2022/06/05 05:47:00;;;;;;;;;10.75;10.75;;;;;;;;4998416;28;45798;-68
2022/06/05 05:49:26;;;;;;;;;12.25;12.25;;;;;;;;5007108;28;45640;-68
2022/06/05 05:51:51;;;;;;;;;10.25;10.25;;;;;;;;5015265;28;47969;-69
2022/06/05 05:54:17;;;;;;;;;14.25;14.25;;;;;;;;5000989;28;45638;-68
2022/06/05 05:56:42;;;;;;;;;13.50;12.50;;;;;;;;5029561;28;45446;-68
2022/06/05 05:59:07;;;;;;;;;15.75;11.50;;;;;;;;5000412;28;45446;-68
2022/06/05 06:01:33;;;;;;;;;10.75;10.75;;;;;;;;5016357;28;48143;-72
2022/06/05 06:03:58;;;;;;;;;13.00;12.00;;;;;;;;5016143;28;45374;-67
2022/06/05 06:06:25;;;;;;;;;13.00;13.00;;;;;;;;5012041;28;45557;-68
2022/06/05 06:08:51;;;;;;;;;13.25;12.25;;;;;;;;5028304;28;45540;-68
2022/06/05 06:11:16;;;;;;;;;14.25;14.25;;;;;;;;5013790;28;46221;-68
2022/06/05 06:13:42;;;;;;;;;11.50;11.50;;;;;;;;5015928;28;45372;-68
2022/06/05 06:16:07;;;;;;;;;17.25;15.00;;;;;;;;5027276;28;45793;-68
2022/06/05 06:18:32;;;;;;;;;18.00;15.50;;;;;;;;5008768;28;45336;-68
2022/06/05 06:20:57;;;;;;;;;16.00;14.50;;;;;;;;5028705;28;47543;-68
2022/06/05 06:23:22;;;;;;;;;15.25;14.75;;;;;;;;5015972;28;45715;-67
2022/06/05 06:25:48;;;;;;;;;17.50;16.75;;;;;;;;5014370;28;45518;-69
2022/06/05 06:28:13;;;;;;;;;14.75;14.00;;;;;;;;5013616;28;45425;-70
2022/06/05 06:30:39;;;;;;;;;14.00;13.50;;;;;;;;5010872;28;48427;-69
2022/06/05 06:33:04;;;;;;;;;14.25;14.25;;;;;;;;5050204;28;45386;-70
2022/06/05 06:35:29;;;;;;;;;11.25;11.25;;;;;;;;5040952;28;45636;-69
2022/06/05 06:37:55;;;;;;;;;16.00;16.00;;;;;;;;5039591;28;45473;-70
2022/06/05 06:40:20;;;;;;;;;16.75;16.00;;;;;;;;5022389;28;48300;-70
2022/06/05 06:42:45;;;;;;;;;14.50;12.50;;;;;;;;5038876;28;45358;-71
2022/06/05 06:45:11;;;;;;;;;12.00;12.00;;;;;;;;5032976;28;45504;-71
2022/06/05 06:47:37;;;;;;;;;9.50;9.50;;;;;;;;5036434;28;45553;-70
2022/06/05 06:50:02;;;;;;;;;16.25;15.50;;;;;;;;5033958;28;47599;-70
2022/06/05 06:52:27;;;;;;;;;11.75;11.50;;;;;;;;5042355;28;45451;-70
2022/06/05 06:54:55;;;;;;;;;13.25;12.00;;;;;;;;5041207;28;45805;-72
2022/06/05 06:57:21;;;;;;;;;11.75;11.75;;;;;;;;5037271;28;45430;-71
2022/06/05 06:59:46;;;;;;;;;12.75;12.75;;;;;;;;5040244;28;45599;-69
2022/06/05 07:02:11;;;;;;;;;12.25;12.25;;;;;;;;5047051;28;45527;-69
2022/06/05 07:04:36;;;;;;;;;12.25;12.00;;;;;;;;5022900;28;45342;-71
2022/06/05 07:07:02;;;;;;;;;13.50;13.50;;;;;;;;5023260;28;45410;-69
2022/06/05 07:09:27;;;;;;;;;14.50;14.50;;;;;;;;5031104;28;47455;-69
2022/06/05 07:11:52;;;;;;;;;12.75;12.75;;;;;;;;5071267;28;45309;-71
2022/06/05 07:14:18;;;;;;;;;12.50;11.00;;;;;;;;5050986;28;45414;-69
2022/06/05 07:16:43;;;;;;;;;14.75;14.75;;;;;;;;5062337;28;45263;-70
2022/06/05 07:19:08;;;;;;;;;14.25;14.25;;;;;;;;5029989;28;47768;-69
2022/06/05 07:21:34;;;;;;;;;10.50;10.50;;;;;;;;5030088;28;45520;-70
2022/06/05 07:23:59;;;;;;;;;12.75;12.75;;;;;;;;5042951;28;45491;-67
2022/06/05 07:26:26;;;;;;;;;13.50;12.50;;;;;;;;5016811;28;45674;-69
2022/06/05 07:28:53;;;;;;;;;13.75;13.75;;;;;;;;5034952;28;47203;-71
2022/06/05 07:31:19;;;;;;;;;15.00;13.25;;;;;;;;5032455;28;45665;-69
2022/06/05 07:33:44;;;;;;;;;14.00;13.50;;;;;;;;5040850;28;45496;-71
2022/06/05 07:36:11;;;;;;;;;12.25;10.50;;;;;;;;5037867;28;45395;-70
2022/06/05 07:38:36;;;;;;;;;10.00;10.00;;;;;;;;5031200;28;48767;-70
2022/06/05 07:41:02;;;;;;;;;8.75;8.75;;;;;;;;5037751;28;45215;-71
2022/06/05 07:43:27;;;;;;;;;10.75;10.75;;;;;;;;5047913;28;45420;-70
2022/06/05 07:45:52;;;;;;;;;11.25;11.25;;;;;;;;5044998;28;45435;-70
2022/06/05 07:48:19;;;;;;;;;10.75;10.75;;;;;;;;5049046;28;45608;-69
2022/06/05 07:56:12;;;;;;;;;9.75;9.50;;;;;;;;5037820;28;46023;-70
2022/06/05 07:58:37;;;;;;;;;6.00;5.25;;;;;;;;5028618;28;46979;-71
2022/06/05 08:01:03;;;;;;;;;11.50;9.00;;;;;;;;5019757;28;45644;-68
2022/06/05 08:03:28;;;;;;;;;7.50;7.50;;;;;;;;5030401;28;45513;-69
2022/06/05 08:05:53;;;;;;;;;8.00;7.00;;;;;;;;5026682;28;45543;-68
2022/06/05 08:08:18;;;;;;;;;6.50;6.50;;;;;;;;5039647;28;45687;-70
2022/06/05 08:10:44;;;;;;;;;7.50;6.00;;;;;;;;5037878;28;45975;-69
2022/06/05 08:13:09;;;;;;;;;4.25;4.25;;;;;;;;5053926;28;45682;-68
2022/06/05 08:15:34;;;;;;;;;5.00;4.25;;;;;;;;5051913;28;45512;-69
2022/06/05 08:17:59;;;;;;;;;5.00;5.00;;;;;;;;5036769;28;47778;-70
2022/06/05 08:20:25;;;;;;;;;4.75;4.75;;;;;;;;5038779;28;45732;-69
2022/06/05 08:22:50;;;;;;;;;6.75;6.75;;;;;;;;5037854;28;45602;-70
2022/06/05 08:25:15;;;;;;;;;5.00;5.00;;;;;;;;5039023;28;45753;-70
2022/06/05 08:27:41;;;;;;;;;4.75;4.75;;;;;;;;5056784;28;45620;-69
2022/06/05 08:30:06;;;;;;;;;4.50;3.50;;;;;;;;5059264;28;45317;-69
2022/06/05 08:32:31;;;;;;;;;4.75;4.00;;;;;;;;5055368;28;45383;-68
2022/06/05 08:34:57;;;;;;;;;5.00;5.00;;;;;;;;5056481;28;45477;-68
2022/06/05 08:42:59;;;;;;;;;6.25;6.00;;;;;;;;5068682;28;45530;-67
2022/06/05 08:45:28;;;;;;;;;5.75;5.25;;;;;;;;5036879;28;45314;-68
2022/06/05 08:47:55;;;;;;;;;4.25;4.00;;;;;;;;5040365;28;48460;-68
2022/06/05 08:50:28;;;;;;;;;2.75;2.75;;;;;;;;5056086;28;45271;-67
2022/06/05 08:52:56;;;;;;;;;4.25;4.25;;;;;;;;5057320;28;45457;-69
2022/06/05 08:55:30;;;;;;;;;4.50;4.50;;;;;;;;5038379;28;45932;-69
2022/06/05 08:57:58;;;;;;;;;5.25;5.00;;;;;;;;5037782;28;48011;-69
2022/06/05 09:00:31;;;;;;;;;5.75;5.75;;;;;;;;5036763;28;46311;-68
2022/06/05 09:03:09;;;;;;;;;6.75;6.75;;;;;;;;5070089;28;45425;-67
2022/06/05 09:05:36;;;;;;;;;8.00;6.00;;;;;;;;5046533;28;45554;-69
2022/06/05 09:08:04;;;;;;;;;7.25;6.75;;;;;;;;5044377;28;48628;-70
2022/06/05 09:10:32;;;;;;;;;5.00;5.00;;;;;;;;5039616;28;45966;-67
2022/06/05 09:13:00;;;;;;;;;9.75;6.25;;;;;;;;5052528;28;45527;-67
2022/06/05 09:15:30;;;;;;;;;7.50;6.25;;;;;;;;5047890;28;45576;-69
2022/06/05 09:17:57;;;;;;;;;5.00;5.00;;;;;;;;5039909;28;47633;-69
2022/06/05 09:20:31;;;;;;;;;7.00;7.00;;;;;;;;5062835;28;45759;-69
2022/06/05 09:22:59;;;;;;;;;4.00;4.00;;;;;;;;5061562;28;45454;-69
2022/06/05 09:25:50;;;;;;;;;7.50;7.00;;;;;;;;5044499;28;45525;-70
2022/06/05 09:28:22;;;;;;;;;2.50;2.50;;;;;;;;5046897;28;45892;-69
2022/06/05 09:30:54;;;;;;;;;9.50;6.00;;;;;;;;5046589;28;46482;-70
2022/06/05 09:33:30;;;;;;;;;9.00;7.75;;;;;;;;5061891;28;45421;-71
2022/06/05 09:36:01;;;;;;;;;7.00;7.00;;;;;;;;5051074;28;45493;-68
2022/06/05 09:38:34;;;;;;;;;6.25;6.25;;;;;;;;5048297;28;47360;-68
2022/06/05 09:41:05;;;;;;;;;7.00;7.00;;;;;;;;5044392;28;46263;-68
2022/06/05 09:43:43;;;;;;;;;6.50;6.50;;;;;;;;5045449;28;45456;-67
2022/06/05 09:46:17;;;;;;;;;9.75;9.25;;;;;;;;5052381;28;45573;-70
2022/06/05 09:48:52;;;;;;;;;7.25;7.25;;;;;;;;5066488;28;46510;-68
2022/06/05 09:51:18;;;;;;;;;6.25;6.25;;;;;;;;5049826;28;45845;-69
2022/06/05 09:53:48;;;;;;;;;6.75;6.75;;;;;;;;5042078;28;45695;-69
2022/06/05 09:56:28;;;;;;;;;11.50;9.75;;;;;;;;5048858;28;45749;-70
2022/06/05 09:59:12;;;;;;;;;9.25;9.25;;;;;;;;5051589;28;48364;-69
2022/06/05 10:01:55;;;;;;;;;16.50;15.25;;;;;;;;5032500;28;46855;-68
2022/06/05 10:04:21;;;;;;;;;8.75;8.75;;;;;;;;5042816;28;45357;-69
2022/06/05 10:06:50;;;;;;;;;13.50;12.75;;;;;;;;5036178;28;45939;-68
2022/06/05 10:09:16;;;;;;;;;12.75;12.00;;;;;;;;5050244;28;45400;-68
2022/06/05 10:11:48;;;;;;;;;10.25;10.25;;;;;;;;5059710;28;45453;-69
2022/06/05 10:14:13;;;;;;;;;12.50;12.50;;;;;;;;5032871;28;45580;-69
2022/06/05 10:16:45;;;;;;;;;13.00;13.00;;;;;;;;5061696;28;45407;-69
2022/06/05 10:19:10;;;;;;;;;9.25;9.25;;;;;;;;5050740;28;48492;-69
2022/06/05 10:21:39;;;;;;;;;14.00;13.00;;;;;;;;5037370;28;45552;-68
2022/06/05 10:24:19;;;;;;;;;12.75;11.75;;;;;;;;5047158;28;45429;-69
2022/06/05 10:26:49;;;;;;;;;12.50;12.50;;;;;;;;5058348;28;45521;-68
2022/06/05 10:29:20;;;;;;;;;14.00;14.00;;;;;;;;5058073;28;47819;-68
2022/06/05 10:32:03;;;;;;;;;11.50;11.50;;;;;;;;5049730;28;45426;-69
2022/06/05 10:34:54;;;;;;;;;13.50;13.50;;;;;;;;5060897;28;45491;-68
2022/06/05 10:37:23;;;;;;;;;14.75;14.75;;;;;;;;5032177;28;45635;-69
2022/06/05 10:39:57;;;;;;;;;14.00;13.75;;;;;;;;5050937;28;46586;-69
2022/06/05 10:42:27;;;;;;;;;14.50;14.50;;;;;;;;5056345;28;45564;-69
2022/06/05 10:45:02;;;;;;;;;17.00;14.25;;;;;;;;5047882;28;45569;-68
2022/06/05 10:47:46;;;;;;;;;18.50;17.00;;;;;;;;5064100;28;45405;-70
2022/06/05 10:50:14;;;;;;;;;17.25;16.00;;;;;;;;5065325;28;46974;-69
2022/06/05 10:52:39;;;;;;;;;14.75;13.75;;;;;;;;5047590;28;45700;-69
2022/06/05 10:55:23;;;;;;;;;21.25;19.00;;;;;;;;5064750;28;45443;-68
2022/06/05 10:57:54;;;;;;;;;17.50;15.75;;;;;;;;5052158;28;45926;-69
2022/06/05 11:00:23;;;;;;;;;12.50;12.50;;;;;;;;5065142;28;45904;-69
2022/06/05 11:03:04;;;;;;;;;15.00;15.00;;;;;;;;5047232;28;46180;-68
2022/06/05 11:05:50;;;;;;;;;13.75;13.75;;;;;;;;5037120;28;45556;-68
2022/06/05 11:08:25;;;;;;;;;11.00;10.75;;;;;;;;5026545;28;45510;-68
2022/06/05 11:13:40;;;;;;;;;13.50;13.50;;;;;;;;5067996;28;45409;-69
2022/06/05 11:16:17;;;;;;;;;14.00;12.75;;;;;;;;5059743;28;45528;-69
2022/06/05 11:18:49;;;;;;;;;18.50;16.75;;;;;;;;5064144;28;45804;-67
2022/06/05 11:21:17;;;;;;;;;12.50;12.50;;;;;;;;5045735;28;47632;-68
2022/06/05 11:23:44;;;;;;;;;15.50;15.00;;;;;;;;5065059;28;45326;-68
2022/06/05 11:26:12;;;;;;;;;15.50;14.50;;;;;;;;5047401;28;45529;-68
2022/06/05 11:28:44;;;;;;;;;19.00;16.00;;;;;;;;5046624;28;47258;-68
2022/06/05 11:31:13;;;;;;;;;16.50;15.50;;;;;;;;5066864;28;47734;-68
2022/06/05 11:33:48;;;;;;;;;15.75;14.25;;;;;;;;5055509;28;45698;-69
2022/06/05 11:36:17;;;;;;;;;19.00;18.75;;;;;;;;5036657;28;45743;-70
2022/06/05 11:38:46;;;;;;;;;15.75;13.25;;;;;;;;5055427;28;45589;-70
2022/06/05 11:41:17;;;;;;;;;15.75;14.25;;;;;;;;5060248;28;45649;-70
2022/06/05 11:43:43;;;;;;;;;14.50;14.50;;;;;;;;5071524;28;45631;-69
2022/06/05 11:46:10;;;;;;;;;17.50;17.50;;;;;;;;5063721;28;45486;-70
2022/06/05 11:48:43;;;;;;;;;15.75;14.50;;;;;;;;5061721;28;45497;-69
2022/06/05 11:51:11;;;;;;;;;17.50;15.50;;;;;;;;5055669;28;46423;-69
2022/06/05 11:53:51;;;;;;;;;16.75;14.50;;;;;;;;5065327;28;45492;-70
2022/06/05 11:56:20;;;;;;;;;13.75;13.75;;;;;;;;5023467;28;45491;-69
2022/06/05 11:58:52;;;;;;;;;15.75;15.00;;;;;;;;5070880;28;45475;-69
2022/06/05 12:01:20;;;;;;;;;18.00;16.75;;;;;;;;5051387;28;48881;-70
2022/06/05 12:03:54;;;;;;;;;12.50;12.50;;;;;;;;5043299;28;46320;-68
2022/06/05 12:06:24;;;;;;;;;21.00;19.00;;;;;;;;5055316;28;45777;-69
2022/06/05 12:08:56;;;;;;;;;17.00;16.50;;;;;;;;5036950;28;45700;-69
2022/06/05 12:11:27;;;;;;;;;14.00;13.25;;;;;;;;5061436;28;45496;-68
2022/06/05 12:13:58;;;;;;;;;14.00;14.00;;;;;;;;5050318;28;46344;-69
2022/06/05 12:16:26;;;;;;;;;13.75;12.50;;;;;;;;5040501;28;46331;-69
2022/06/05 12:18:55;;;;;;;;;13.25;13.25;;;;;;;;5058973;28;45512;-70
2022/06/05 12:21:26;;;;;;;;;18.00;18.00;;;;;;;;5045611;28;47768;-70
2022/06/05 12:23:56;;;;;;;;;18.25;18.00;;;;;;;;5055257;28;45775;-69
2022/06/05 12:26:28;;;;;;;;;16.50;14.50;;;;;;;;5052062;28;45632;-70
2022/06/05 12:29:12;;;;;;;;;13.25;13.25;;;;;;;;5040573;28;45863;-69
2022/06/05 12:31:40;;;;;;;;;16.50;14.75;;;;;;;;5041342;28;48899;-69
2022/06/05 12:34:15;;;;;;;;;13.00;13.00;;;;;;;;5043350;28;45848;-68
2022/06/05 12:36:53;;;;;;;;;13.00;13.00;;;;;;;;5055270;28;45475;-69
2022/06/05 12:39:25;;;;;;;;;15.50;13.75;;;;;;;;5050413;28;45708;-70
2022/06/05 12:42:01;;;;;;;;;14.00;14.00;;;;;;;;5060269;28;45712;-69
2022/06/05 12:44:30;;;;;;;;;11.75;11.50;;;;;;;;5036552;28;46084;-69
2022/06/05 12:47:04;;;;;;;;;13.25;13.00;;;;;;;;5059793;28;45436;-68
2022/06/05 12:49:29;;;;;;;;;9.75;8.75;;;;;;;;5056827;28;45394;-69
2022/06/05 12:52:14;;;;;;;;;11.25;11.25;;;;;;;;5065226;28;46308;-67
2022/06/05 12:54:52;;;;;;;;;13.25;12.25;;;;;;;;5045423;28;45731;-68
2022/06/05 12:57:30;;;;;;;;;12.25;12.25;;;;;;;;5046367;28;45492;-69
2022/06/05 12:59:59;;;;;;;;;8.75;8.75;;;;;;;;5035028;28;45501;-69
2022/06/05 13:02:36;;;;;;;;;18.00;17.50;;;;;;;;5051266;28;46559;-69
2022/06/05 13:05:21;;;;;;;;;10.00;10.00;;;;;;;;5036066;28;45741;-69
2022/06/05 13:07:53;;;;;;;;;17.50;15.75;;;;;;;;5040895;28;45617;-69
2022/06/05 13:10:22;;;;;;;;;8.00;8.00;;;;;;;;5049854;28;45489;-69
2022/06/05 13:12:50;;;;;;;;;12.25;11.75;;;;;;;;5036976;28;47586;-69
2022/06/05 13:15:19;;;;;;;;;12.25;12.25;;;;;;;;5045872;28;45482;-70
2022/06/05 13:17:56;;;;;;;;;9.75;9.75;;;;;;;;5052741;28;45585;-71
2022/06/05 13:20:33;;;;;;;;;4.00;4.00;;;;;;;;5059179;28;45498;-70
2022/06/05 13:23:04;;;;;;;;;10.50;10.50;;;;;;;;5038131;28;48798;-69
2022/06/05 13:25:50;;;;;;;;;11.00;10.00;;;;;;;;5053678;28;45563;-69
2022/06/05 13:28:28;;;;;;;;;12.00;12.00;;;;;;;;5043205;28;45888;-69
2022/06/05 13:30:55;;;;;;;;;11.50;11.50;;;;;;;;5032968;28;45823;-69
2022/06/05 13:33:29;;;;;;;;;18.50;15.00;;;;;;;;5045417;28;46829;-71
2022/06/05 13:36:04;;;;;;;;;12.75;12.75;;;;;;;;5054477;28;45504;-70
2022/06/05 13:38:32;;;;;;;;;12.75;12.75;;;;;;;;5059610;28;45871;-69
2022/06/05 13:41:15;;;;;;;;;10.25;9.50;;;;;;;;5057812;28;45813;-68
2022/06/05 13:43:45;;;;;;;;;12.25;12.25;;;;;;;;5059861;28;45979;-69
2022/06/05 13:46:25;;;;;;;;;15.00;15.00;;;;;;;;5044590;28;45576;-67
2022/06/05 13:49:00;;;;;;;;;10.75;9.00;;;;;;;;5042455;28;45829;-69
2022/06/05 13:51:27;;;;;;;;;11.75;11.75;;;;;;;;5051583;28;45637;-74
2022/06/05 13:54:08;;;;;;;;;12.00;12.00;;;;;;;;5053466;28;47849;-69
2022/06/05 13:56:33;;;;;;;;;11.50;11.50;;;;;;;;5040052;28;46225;-69
2022/06/05 13:59:04;;;;;;;;;11.00;11.00;;;;;;;;5052593;28;45495;-69
2022/06/05 14:01:40;;;;;;;;;12.00;12.00;;;;;;;;5036186;28;48435;-69
2022/06/05 14:04:25;;;;;;;;;13.00;11.75;;;;;;;;5045123;28;48487;-70
2022/06/05 14:06:51;;;;;;;;;11.75;11.75;;;;;;;;5045735;28;45691;-68
2022/06/05 14:09:51;;;;;;;;;12.00;12.00;;;;;;;;5034012;28;45832;-68
2022/06/05 14:12:18;;;;;;;;;12.75;12.00;;;;;;;;4974419;28;45502;-68
2022/06/05 14:14:45;;;;;;;;;14.25;14.00;;;;;;;;4980994;28;47651;-68
2022/06/05 14:17:25;;;;;;;;;12.50;12.50;;;;;;;;4973162;28;45576;-69
2022/06/05 14:19:55;;;;;;;;;9.25;9.25;;;;;;;;4989002;28;45829;-69
2022/06/05 14:22:23;;;;;;;;;11.50;11.50;;;;;;;;4985430;28;45802;-69
2022/06/05 14:24:50;;;;;;;;;11.75;10.50;;;;;;;;4970581;28;47854;-69
2022/06/05 14:27:17;;;;;;;;;11.50;11.50;;;;;;;;4993178;28;45521;-69
2022/06/05 14:29:44;;;;;;;;;12.75;12.50;;;;;;;;4973551;28;45813;-68
2022/06/05 14:32:17;;;;;;;;;14.00;13.00;;;;;;;;4975982;28;45724;-67
2022/06/05 14:34:44;;;;;;;;;12.75;11.00;;;;;;;;4998657;28;46640;-70
2022/06/05 14:37:16;;;;;;;;;11.00;11.00;;;;;;;;4988860;28;45487;-71
2022/06/05 14:39:44;;;;;;;;;8.25;8.25;;;;;;;;4996526;28;45518;-68
2022/06/05 14:42:28;;;;;;;;;10.25;9.00;;;;;;;;4992093;28;45669;-70
2022/06/05 14:44:59;;;;;;;;;11.25;9.50;;;;;;;;4982215;28;48037;-70
2022/06/05 14:47:32;;;;;;;;;9.00;9.00;;;;;;;;4997739;28;46266;-68
2022/06/05 14:50:00;;;;;;;;;4.50;4.50;;;;;;;;5045402;28;46045;-68
2022/06/05 14:52:44;;;;;;;;;6.50;6.50;;;;;;;;5058074;28;45836;-70
2022/06/05 14:57:53;;;;;;;;;6.25;5.00;;;;;;;;5062295;28;45644;-71
2022/06/05 15:00:21;;;;;;;;;6.50;6.50;;;;;;;;5054884;28;45486;-67